Terminal Aerodrome Forecast
Issued by NWS

Home | Current Version | Previous Version | Text Only | Print | Product List | Glossary On
Versions: 1 2 3 4 5 6 7 8 9 10 11 12 13 14 15 16 17 18 19 20
000
FTUS46 KMTR 210500
TAFSTS
TAF
KSTS 210520Z 2106/2206 17003KT 4SM -RA BR SCT004 BKN009 OVC011
      TEMPO 2106/2110 1SM -RA BR BKN004 OVC007
     FM211500 VRB03KT 4SM BR OVC007
      TEMPO 2115/2118 1/2SM FG OVC001
     FM211800 VRB03KT 5SM BR SCT006 BKN015
     FM220300 00000KT 3SM BR BKN002 OVC007=

USA.gov is the U.S. government's official web portal to all federal, state and local government web resources and services.